Time;durP1;ratioP1;P1;durP2;ratioP2;P2;SDS_P1;SDS_P2;PMS_P1;PMS_P2;Temp;Humidity;BMP_temperature;BMP_pressure;BME280_temperature;BME280_humidity;BME280_pressure;Samples;Min_cycle;Max_cycle;Signal;HPM_P1;HPM_P2
2022/06/14 00:02:15;;;;;;;7.97;4.17;;;;;;;18.44;51.13;99340.44;6951366;28;20247;-79
2022/06/14 00:05:38;;;;;;;8.00;4.30;;;;;;;18.48;51.23;99357.16;6951302;28;20236;-79
2022/06/14 00:09:00;;;;;;;8.33;4.93;;;;;;;18.37;51.48;99355.28;6949796;28;20241;-80
2022/06/14 00:12:21;;;;;;;5.27;3.97;;;;;;;18.48;51.41;99355.28;6950911;28;20219;-80
2022/06/14 00:15:45;;;;;;;7.70;3.80;;;;;;;18.32;51.32;99350.56;6951446;28;20302;-80
2022/06/14 00:19:07;;;;;;;6.90;4.50;;;;;;;18.09;51.92;99338.81;6950392;28;20211;-79
2022/06/14 00:22:30;;;;;;;8.87;4.47;;;;;;;18.23;51.79;99362.88;6950426;28;20280;-79
2022/06/14 00:25:53;;;;;;;6.53;4.10;;;;;;;18.31;51.13;99353.50;6951196;28;20354;-79
2022/06/14 00:29:15;;;;;;;5.90;3.97;;;;;;;17.98;51.50;99329.59;6950433;28;20556;-79
2022/06/14 00:32:37;;;;;;;5.00;4.40;;;;;;;18.21;51.34;99339.66;6950931;28;20695;-79
2022/06/14 00:36:00;;;;;;;4.77;4.07;;;;;;;17.96;52.45;99339.06;6950866;28;20233;-79
2022/06/14 00:39:23;;;;;;;6.37;4.40;;;;;;;17.75;53.21;99347.88;6950449;28;20206;-79
2022/06/14 00:42:47;;;;;;;5.13;3.90;;;;;;;17.87;52.14;99332.34;6949874;28;20234;-80
2022/06/14 00:46:18;;;;;;;7.57;4.60;;;;;;;17.83;52.47;99339.34;6950369;28;20191;-80
2022/06/14 00:49:45;;;;;;;4.80;4.10;;;;;;;17.64;53.30;99340.53;6949500;28;20221;-79
2022/06/14 00:53:09;;;;;;;4.97;4.23;;;;;;;17.56;53.58;99339.00;6950895;28;20290;-80
2022/06/14 00:56:39;;;;;;;6.57;4.90;;;;;;;17.57;53.26;99329.72;6958304;28;20357;-79
2022/06/14 01:00:05;;;;;;;6.07;4.40;;;;;;;17.42;53.88;99345.75;6953391;28;20213;-79
2022/06/14 01:03:31;;;;;;;4.87;4.10;;;;;;;17.55;52.84;99320.13;6961129;28;20320;-80
2022/06/14 01:06:56;;;;;;;8.33;4.33;;;;;;;17.73;52.24;99348.13;6959239;28;20195;-80
2022/06/14 01:10:20;;;;;;;6.27;4.27;;;;;;;17.54;52.57;99338.41;6955008;28;20258;-79
2022/06/14 01:13:43;;;;;;;5.90;4.30;;;;;;;16.91;53.96;99292.88;6971109;28;20210;-80
2022/06/14 01:17:05;;;;;;;9.30;4.73;;;;;;;17.19;54.03;99325.75;6953390;28;20206;-79
2022/06/14 01:20:27;;;;;;;7.53;4.17;;;;;;;17.41;53.98;99325.00;6949872;28;20632;-80
2022/06/14 01:23:50;;;;;;;12.20;4.63;;;;;;;17.56;53.28;99336.25;6950407;28;20226;-81
2022/06/14 01:27:14;;;;;;;6.60;4.63;;;;;;;17.19;53.38;99290.34;6950421;28;20218;-80
2022/06/14 01:30:41;;;;;;;5.00;4.20;;;;;;;17.14;53.56;99323.75;6949951;28;20264;-81
2022/06/14 01:34:06;;;;;;;6.03;4.83;;;;;;;16.76;55.53;99336.91;6950212;28;20183;-80
2022/06/14 01:37:28;;;;;;;7.63;4.60;;;;;;;17.03;55.12;99340.06;6949030;28;20572;-80
2022/06/14 01:40:57;;;;;;;6.63;4.53;;;;;;;17.19;54.35;99321.16;6953772;28;20238;-80
2022/06/14 01:44:25;;;;;;;4.70;4.30;;;;;;;17.41;52.96;99326.88;6976248;28;20667;-80
2022/06/14 01:47:50;;;;;;;6.33;4.17;;;;;;;17.38;53.07;99332.81;6975343;28;20236;-81
2022/06/14 01:54:59;;;;;;;6.50;4.33;;;;;;;16.73;55.54;99334.66;6997177;28;20186;-81
2022/06/14 01:58:26;;;;;;;5.83;4.13;;;;;;;17.03;55.13;99338.16;6975283;28;20305;-81
2022/06/14 02:01:57;;;;;;;8.47;4.40;;;;;;;17.16;54.45;99339.88;6969591;28;20322;-81
2022/06/14 02:05:22;;;;;;;6.37;4.50;;;;;;;17.00;54.21;99329.63;6976578;28;20675;-81
2022/06/14 02:08:48;;;;;;;5.70;4.47;;;;;;;16.94;54.68;99336.88;6974792;28;20201;-80
2022/06/14 02:12:13;;;;;;;5.73;4.30;;;;;;;16.89;54.53;99338.59;6975973;28;20311;-81
2022/06/14 02:15:41;;;;;;;9.17;5.40;;;;;;;16.42;56.34;99329.44;6976688;28;20606;-80
2022/06/14 02:19:08;;;;;;;6.77;4.30;;;;;;;16.83;55.47;99320.47;6975881;28;20247;-80
2022/06/14 02:22:32;;;;;;;5.83;4.23;;;;;;;16.86;54.52;99320.84;6971144;28;20803;-81
2022/06/14 02:25:58;;;;;;;6.27;4.63;;;;;;;16.84;54.42;99312.06;6948777;28;20688;-80
2022/06/14 02:29:22;;;;;;;4.97;4.47;;;;;;;16.93;54.83;99321.56;6948608;28;20204;-81
2022/06/14 02:32:49;;;;;;;6.13;5.07;;;;;;;16.89;54.90;99335.88;6950641;28;20681;-80
2022/06/14 02:36:14;;;;;;;8.47;4.50;;;;;;;17.15;53.38;99330.84;6949944;28;20224;-81
2022/06/14 02:39:38;;;;;;;5.53;4.20;;;;;;;17.22;53.11;99328.03;6949984;28;20298;-80
2022/06/14 02:43:03;;;;;;;5.57;4.20;;;;;;;17.04;52.98;99304.41;6946457;28;20233;-80
2022/06/14 02:46:28;;;;;;;8.60;4.67;;;;;;;16.92;53.57;99308.19;6947629;28;20267;-80
2022/06/14 02:49:55;;;;;;;7.47;4.70;;;;;;;16.79;53.61;99320.09;6947244;28;20240;-81
2022/06/14 02:53:20;;;;;;;8.73;4.47;;;;;;;16.55;54.65;99312.06;6948317;28;20643;-81
2022/06/14 02:56:45;;;;;;;6.07;4.40;;;;;;;16.20;55.05;99289.28;6949482;28;20689;-81
2022/06/14 03:00:10;;;;;;;7.67;5.17;;;;;;;16.44;55.61;99316.41;6947986;28;20231;-82
2022/06/14 03:03:38;;;;;;;6.70;4.90;;;;;;;16.63;54.61;99319.94;6949552;28;20299;-80
2022/06/14 03:07:06;;;;;;;7.40;4.57;;;;;;;16.63;54.52;99311.78;6949719;28;20198;-80
2022/06/14 03:10:33;;;;;;;6.23;5.20;;;;;;;16.62;54.67;99304.63;6946393;28;20230;-80
2022/06/14 03:13:57;;;;;;;7.00;4.40;;;;;;;16.52;54.86;99307.94;6963270;28;20219;-81
2022/06/14 03:17:23;;;;;;;5.30;4.80;;;;;;;16.30;55.42;99297.75;6959913;28;20256;-81
2022/06/14 03:20:51;;;;;;;7.47;4.53;;;;;;;16.59;54.96;99333.19;6954081;28;20290;-80
2022/06/14 03:24:20;;;;;;;7.03;5.13;;;;;;;16.62;54.24;99331.88;6953798;28;20228;-80
2022/06/14 03:27:45;;;;;;;6.93;4.80;;;;;;;16.28;55.64;99340.69;6952978;28;20212;-80
2022/06/14 03:31:10;;;;;;;7.43;5.03;;;;;;;15.96;56.18;99317.41;6953104;28;20727;-80
2022/06/14 03:34:36;;;;;;;7.47;4.90;;;;;;;15.84;57.44;99330.94;6953870;28;20331;-80
2022/06/14 03:38:01;;;;;;;9.37;5.03;;;;;;;16.07;56.92;99324.81;6953140;28;20245;-80
2022/06/14 03:41:26;;;;;;;10.23;5.57;;;;;;;16.38;55.54;99338.25;6953038;28;20341;-80
2022/06/14 03:44:47;;;;;;;6.97;4.70;;;;;;;16.61;54.78;99332.94;6952913;28;20316;-80
2022/06/14 03:48:10;;;;;;;5.47;4.53;;;;;;;16.48;54.51;99331.25;6951992;28;20296;-80
2022/06/14 03:51:45;;;;;;;7.03;4.30;;;;;;;16.31;55.29;99334.78;6956210;28;20279;-80
2022/06/14 03:55:15;;;;;;;6.83;5.00;;;;;;;16.29;54.75;99312.41;6974177;28;20208;-81
2022/06/14 03:58:51;;;;;;;7.23;5.03;;;;;;;16.35;55.49;99320.47;6951763;28;20683;-81
2022/06/14 04:02:17;;;;;;;8.67;4.77;;;;;;;16.52;55.19;99326.16;6951728;28;20247;-81
2022/06/14 04:05:48;;;;;;;8.87;5.20;;;;;;;16.35;55.50;99339.53;6952572;28;20633;-80
2022/06/14 04:09:19;;;;;;;9.30;5.30;;;;;;;16.57;55.31;99339.91;6950831;28;20288;-80
2022/06/14 04:12:45;;;;;;;8.20;5.17;;;;;;;16.76;54.52;99333.34;6954469;28;20279;-80
2022/06/14 04:16:15;;;;;;;7.73;4.93;;;;;;;16.54;55.19;99330.31;6979469;28;20295;-80
2022/06/14 04:19:52;;;;;;;6.07;4.63;;;;;;;16.54;54.86;99311.25;6978272;28;20209;-80
2022/06/14 04:23:20;;;;;;;7.20;4.90;;;;;;;16.25;56.02;99331.09;6974567;28;20237;-80
2022/06/14 04:26:46;;;;;;;7.40;4.93;;;;;;;16.72;54.58;99321.25;6951756;28;20239;-80
2022/06/14 04:30:11;;;;;;;7.80;4.30;;;;;;;16.76;54.26;99331.44;6957093;28;20231;-81
2022/06/14 04:33:39;;;;;;;6.80;5.20;;;;;;;16.40;55.59;99331.53;6961179;28;20195;-80
2022/06/14 04:37:05;;;;;;;6.03;5.20;;;;;;;16.43;56.08;99341.97;6981056;28;20192;-80
2022/06/14 04:40:29;;;;;;;6.73;5.47;;;;;;;16.30;56.96;99331.25;6979767;28;20277;-80
2022/06/14 04:43:54;;;;;;;6.93;5.07;;;;;;;17.06;55.58;99332.28;6980236;28;20329;-81
2022/06/14 04:47:19;;;;;;;8.47;5.63;;;;;;;17.17;54.58;99304.19;6982537;28;20200;-79
2022/06/14 04:50:44;;;;;;;6.33;4.73;;;;;;;18.00;52.95;99322.00;6992303;28;20219;-81
2022/06/14 04:54:09;;;;;;;5.47;4.73;;;;;;;18.17;51.63;99316.63;6989026;28;20638;-80
2022/06/14 04:57:35;;;;;;;5.53;4.97;;;;;;;17.91;52.41;99328.06;6985292;28;20237;-80
2022/06/14 05:01:00;;;;;;;6.17;5.13;;;;;;;17.90;53.37;99315.47;6986087;28;20219;-83
2022/06/14 05:04:24;;;;;;;6.20;5.00;;;;;;;18.18;52.81;99318.28;6981631;28;20731;-81
2022/06/14 05:07:49;;;;;;;12.70;5.17;;;;;;;18.49;51.43;99315.97;6960532;28;20211;-80
2022/06/14 05:11:13;;;;;;;10.27;5.00;;;;;;;19.06;49.87;99312.13;6977064;28;20321;-81
2022/06/14 05:14:36;;;;;;;6.40;4.63;;;;;;;19.55;48.76;99291.31;6978158;28;20212;-80
2022/06/14 05:18:01;;;;;;;10.47;5.00;;;;;;;19.65;49.63;99316.94;6979470;28;20202;-80
2022/06/14 05:21:26;;;;;;;6.33;4.87;;;;;;;19.54;49.48;99317.03;6979377;28;20230;-81
2022/06/14 05:24:49;;;;;;;8.90;4.90;;;;;;;19.86;48.85;99305.19;6988574;28;20319;-81
2022/06/14 05:28:13;;;;;;;6.10;4.53;;;;;;;20.08;49.14;99322.50;6977008;28;20203;-80
2022/06/14 05:31:40;;;;;;;8.80;5.37;;;;;;;20.93;47.04;99309.84;6958085;28;20337;-81
2022/06/14 05:39:04;;;;;;;7.43;5.03;;;;;;;20.51;47.37;99308.00;6959912;28;20202;-80
2022/06/14 05:42:32;;;;;;;8.33;4.97;;;;;;;19.95;49.20;99314.66;6964498;28;20231;-79
2022/06/14 05:45:56;;;;;;;5.13;4.53;;;;;;;19.81;50.45;99316.06;6969478;28;20194;-80
2022/06/14 05:49:21;;;;;;;5.70;4.60;;;;;;;20.27;49.40;99298.41;6992161;28;20211;-80
2022/06/14 05:52:49;;;;;;;7.77;4.47;;;;;;;20.93;47.66;99318.06;6984254;28;20231;-80
2022/06/14 05:56:18;;;;;;;6.53;4.73;;;;;;;21.51;46.37;99315.28;6997215;28;20244;-79
2022/06/14 06:00:12;;;;;;;6.03;4.37;;;;;;;21.94;45.59;99315.03;6992822;28;20214;-80
2022/06/14 06:03:37;;;;;;;4.87;4.27;;;;;;;21.70;46.50;99314.63;6962751;28;20358;-80
2022/06/14 06:07:01;;;;;;;6.83;4.30;;;;;;;22.33;45.76;99317.19;6955746;28;20203;-80
2022/06/14 06:10:24;;;;;;;8.10;4.50;;;;;;;22.65;44.43;99311.59;6978093;28;20231;-80
2022/06/14 06:13:50;;;;;;;7.50;4.23;;;;;;;22.84;43.23;99312.72;6980422;28;20240;-80
2022/06/14 06:17:15;;;;;;;9.83;4.30;;;;;;;22.83;43.03;99297.31;6986431;28;20214;-81
2022/06/14 06:20:44;;;;;;;8.57;4.97;;;;;;;23.36;42.38;99307.88;6985097;28;20328;-79
2022/06/14 06:24:09;;;;;;;7.10;4.50;;;;;;;22.84;42.47;99299.78;6986417;28;20325;-79
2022/06/14 06:27:35;;;;;;;6.13;4.40;;;;;;;23.17;42.20;99299.31;6985274;28;20190;-81
2022/06/14 06:31:01;;;;;;;6.33;4.53;;;;;;;23.04;42.61;99279.72;6988558;28;20263;-80
2022/06/14 06:34:24;;;;;;;10.63;4.93;;;;;;;23.76;41.43;99288.53;6985689;28;20697;-80
2022/06/14 06:37:50;;;;;;;6.40;4.13;;;;;;;23.94;40.62;99293.47;6963232;28;20214;-80
2022/06/14 06:45:00;;;;;;;5.40;4.13;;;;;;;25.51;37.92;99284.91;6989272;28;20270;-81
2022/06/14 06:48:31;;;;;;;7.37;4.00;;;;;;;25.93;37.13;99296.94;6983502;28;20217;-80
2022/06/14 06:51:56;;;;;;;8.00;4.43;;;;;;;26.30;35.12;99263.09;6988670;28;20224;-81
2022/06/14 06:55:27;;;;;;;6.60;4.23;;;;;;;26.17;34.96;99291.41;6988277;28;20333;-80
2022/06/14 06:58:52;;;;;;;7.13;4.43;;;;;;;25.61;35.60;99265.47;6984245;28;20209;-81
2022/06/14 07:02:17;;;;;;;7.10;4.00;;;;;;;25.77;35.83;99247.66;6983723;28;20702;-81
2022/06/14 07:05:39;;;;;;;7.63;4.40;;;;;;;26.65;33.69;99282.00;6979074;28;20291;-78
2022/06/14 07:09:04;;;;;;;7.87;4.10;;;;;;;25.41;35.64;99265.66;6969028;28;20302;-80
2022/06/14 07:12:29;;;;;;;7.70;4.47;;;;;;;26.14;33.99;99269.91;6975314;28;20254;-80
2022/06/14 07:15:54;;;;;;;6.73;3.90;;;;;;;25.99;35.19;99268.13;6975020;28;20283;-79
2022/06/14 07:19:20;;;;;;;5.70;3.73;;;;;;;25.94;34.76;99256.31;6974831;28;20250;-80
2022/06/14 07:22:44;;;;;;;4.83;3.67;;;;;;;26.02;35.72;99253.72;6975978;28;20261;-80
2022/06/14 07:26:13;;;;;;;6.93;3.70;;;;;;;26.43;32.57;99262.34;6976104;28;20741;-80
2022/06/14 07:29:37;;;;;;;7.43;3.93;;;;;;;24.63;33.79;99264.84;6975757;28;20204;-81
2022/06/14 07:33:00;;;;;;;5.40;3.60;;;;;;;26.06;31.63;99265.00;6984205;28;20229;-80
2022/06/14 07:36:28;;;;;;;7.07;3.90;;;;;;;27.85;30.00;99264.25;6976903;28;20230;-80
2022/06/14 07:39:56;;;;;;;8.20;3.73;;;;;;;26.94;30.10;99261.34;6955526;28;20209;-80
2022/06/14 07:43:23;;;;;;;9.00;4.33;;;;;;;26.42;29.47;99238.59;6959310;28;20229;-80
2022/06/14 07:46:50;;;;;;;5.63;3.70;;;;;;;26.75;30.04;99271.63;6950430;28;20225;-80
2022/06/14 07:50:14;;;;;;;6.97;4.20;;;;;;;25.18;31.83;99272.72;6967937;28;20226;-80
2022/06/14 07:53:39;;;;;;;6.23;4.00;;;;;;;25.61;32.29;99266.28;6976433;28;20593;-80
2022/06/14 07:57:07;;;;;;;5.30;3.87;;;;;;;26.17;31.52;99252.72;6983297;28;20297;-81
2022/06/14 08:04:15;;;;;;;6.70;4.10;;;;;;;26.07;30.41;99241.81;6955078;28;20211;-80
2022/06/14 08:07:36;;;;;;;8.87;3.70;;;;;;;25.98;30.62;99269.25;6983954;28;20210;-81
2022/06/14 08:11:02;;;;;;;5.40;3.60;;;;;;;27.00;28.10;99273.16;6981712;28;20260;-80
2022/06/14 08:14:27;;;;;;;5.20;3.43;;;;;;;26.55;30.36;99260.00;6983465;28;20189;-80
2022/06/14 08:17:58;;;;;;;7.13;3.80;;;;;;;26.84;29.05;99252.41;6991109;28;20221;-82
2022/06/14 08:21:23;;;;;;;7.60;4.10;;;;;;;27.03;29.58;99244.88;6995104;28;20676;-79
2022/06/14 08:24:49;;;;;;;7.90;4.00;;;;;;;27.51;29.35;99230.53;6989942;28;20222;-84
2022/06/14 08:28:15;;;;;;;9.43;3.93;;;;;;;26.63;29.79;99259.31;6991528;28;20255;-81
2022/06/14 08:31:40;;;;;;;4.73;3.40;;;;;;;26.83;30.07;99261.81;6987143;28;20236;-81
2022/06/14 08:35:09;;;;;;;5.60;3.60;;;;;;;25.17;32.46;99254.53;6994564;28;20191;-81
2022/06/14 08:38:34;;;;;;;8.23;3.60;;;;;;;27.23;29.95;99269.50;6991200;28;20190;-80
2022/06/14 08:42:02;;;;;;;6.00;3.50;;;;;;;28.18;28.36;99274.16;6989921;28;20275;-82
2022/06/14 08:45:28;;;;;;;5.87;3.93;;;;;;;29.28;27.37;99238.38;6989212;28;20580;-82
2022/06/14 08:49:12;;;;;;;4.53;3.43;;;;;;;29.94;27.41;99266.13;6984874;28;20199;-81
2022/06/14 08:53:12;;;;;;;5.33;3.70;;;;;;;28.70;26.77;99264.47;6989852;28;20232;-83
2022/06/14 08:56:51;;;;;;;6.37;3.67;;;;;;;29.73;26.02;99250.31;6977160;28;20236;-82
2022/06/14 09:00:33;;;;;;;4.80;2.97;;;;;;;30.74;25.20;99240.72;6990319;28;20230;-81
2022/06/14 09:04:17;;;;;;;6.33;3.60;;;;;;;30.27;25.37;99234.06;6990611;28;20268;-81
2022/06/14 09:08:12;;;;;;;6.80;3.70;;;;;;;28.84;25.88;99240.28;6980168;28;20190;-82
2022/06/14 09:12:07;;;;;;;6.93;3.07;;;;;;;27.37;27.81;99235.19;6980842;28;20232;-80
2022/06/14 09:16:02;;;;;;;5.63;3.40;;;;;;;28.70;27.15;99222.84;6978103;28;20210;-82
2022/06/14 09:19:28;;;;;;;4.87;3.23;;;;;;;29.33;25.33;99216.03;6997957;28;20205;-82
2022/06/14 09:23:02;;;;;;;5.33;3.23;;;;;;;29.98;25.66;99202.31;6992282;28;20228;-80
2022/06/14 09:26:34;;;;;;;4.77;2.93;;;;;;;30.50;25.58;99213.31;6981533;28;20711;-80
2022/06/14 09:30:20;;;;;;;6.00;3.23;;;;;;;30.31;24.08;99204.41;6982116;28;20220;-80
2022/06/14 09:34:23;;;;;;;7.20;3.20;;;;;;;29.53;23.42;99196.06;6986223;28;20214;-81
2022/06/14 09:38:07;;;;;;;6.80;3.13;;;;;;;28.06;25.46;99175.97;6938777;28;20208;-79
2022/06/14 09:41:42;;;;;;;5.37;2.90;;;;;;;28.42;25.35;99191.56;6987490;28;20224;-80
2022/06/14 09:45:47;;;;;;;4.47;2.93;;;;;;;29.16;23.86;99179.81;6983311;28;20232;-82
2022/06/14 09:49:38;;;;;;;4.10;2.90;;;;;;;28.31;25.60;99167.91;6981216;28;20205;-80
2022/06/14 09:53:33;;;;;;;6.53;2.90;;;;;;;29.36;23.89;99168.16;6980686;28;20223;-80
2022/06/14 09:57:17;;;;;;;5.27;3.07;;;;;;;29.46;24.40;99178.19;6983867;28;20191;-81
2022/06/14 10:00:46;;;;;;;7.07;3.30;;;;;;;29.55;24.62;99160.44;7003735;28;20229;-81
2022/06/14 10:04:21;;;;;;;6.67;3.53;;;;;;;28.65;26.23;99189.63;6972411;28;20239;-80
2022/06/14 10:08:13;;;;;;;6.63;3.10;;;;;;;28.54;26.08;99168.84;6978241;28;20231;-83
2022/06/14 10:11:43;;;;;;;5.93;3.27;;;;;;;27.93;26.14;99185.13;6950713;28;20234;-83
2022/06/14 10:15:10;;;;;;;5.17;3.10;;;;;;;28.65;25.47;99175.75;6979328;28;20191;-83
2022/06/14 10:18:44;;;;;;;4.77;2.90;;;;;;;30.45;23.45;99166.16;6986015;28;20193;-81
2022/06/14 10:22:14;;;;;;;4.83;3.37;;;;;;;30.03;22.56;99164.06;6985643;28;20226;-80
2022/06/14 10:28:11;;;;;;;4.70;2.97;;;;;;;28.75;24.76;99161.66;6978173;28;20257;-79
2022/06/14 10:29:35;;;;;;;5.03;3.13;;;;;;;31.03;24.14;99154.53;6975559;28;20209;-75
2022/06/14 10:33:22;;;;;;;5.57;3.30;;;;;;;29.84;24.65;99165.47;6977538;28;20722;-79
2022/06/14 10:37:00;;;;;;;7.00;3.10;;;;;;;29.78;24.65;99162.00;6961738;28;20194;-79
2022/06/14 10:40:46;;;;;;;9.37;3.27;;;;;;;29.55;23.86;99163.22;6949650;28;20229;-79
2022/06/14 10:44:26;;;;;;;5.67;3.10;;;;;;;29.48;23.74;99154.47;6955335;28;20314;-79
2022/06/14 10:48:02;;;;;;;4.60;3.00;;;;;;;29.98;24.22;99150.31;6979151;28;20196;-79
2022/06/14 10:51:32;;;;;;;3.67;2.83;;;;;;;29.14;24.83;99147.94;6988719;28;20226;-82
2022/06/14 10:55:09;;;;;;;5.50;3.30;;;;;;;27.42;26.33;99153.97;6983132;28;20222;-80
2022/06/14 10:58:47;;;;;;;4.53;3.10;;;;;;;29.04;24.50;99142.63;6983561;28;20234;-81
2022/06/14 11:02:16;;;;;;;3.10;2.80;;;;;;;30.06;24.64;99146.72;6983040;28;20711;-81
2022/06/14 11:05:55;;;;;;;4.90;3.00;;;;;;;30.64;21.99;99138.84;6987139;28;20217;-81
2022/06/14 11:09:25;;;;;;;6.67;3.17;;;;;;;31.58;23.04;99133.94;6985796;28;20197;-81
2022/06/14 11:12:59;;;;;;;5.20;2.90;;;;;;;31.19;22.30;99119.47;6983712;28;20231;-79
2022/06/14 11:16:27;;;;;;;3.63;3.17;;;;;;;30.46;23.10;99130.78;6982052;28;20194;-78
2022/06/14 11:20:02;;;;;;;4.57;2.80;;;;;;;30.17;23.14;99130.56;6969686;28;20256;-78
2022/06/14 11:23:28;;;;;;;5.80;2.90;;;;;;;29.40;24.27;99110.00;6975507;28;20208;-79
2022/06/14 11:26:57;;;;;;;5.47;3.20;;;;;;;30.97;22.81;99114.06;6974429;28;20211;-78
2022/06/14 11:30:25;;;;;;;8.40;3.23;;;;;;;31.46;23.04;99117.09;6972961;28;20674;-77
2022/06/14 11:34:19;;;;;;;6.10;3.33;;;;;;;29.42;23.63;99111.31;6974059;28;20195;-78
2022/06/14 11:37:54;;;;;;;3.70;3.07;;;;;;;30.28;23.94;99099.34;6978818;28;20301;-77
2022/06/14 11:41:19;;;;;;;3.87;2.97;;;;;;;30.49;22.82;99103.09;6967909;28;20234;-78
2022/06/14 11:44:50;;;;;;;4.70;2.97;;;;;;;30.70;23.12;99101.34;6950837;28;20225;-78
2022/06/14 11:48:20;;;;;;;3.57;2.60;;;;;;;31.21;21.58;99101.28;6966958;28;20239;-77
2022/06/14 11:51:51;;;;;;;3.37;2.70;;;;;;;31.24;21.52;99100.59;6963690;28;20236;-78
2022/06/14 11:55:25;;;;;;;3.63;2.47;;;;;;;30.28;22.54;99096.56;6977535;28;20199;-77
2022/06/14 11:59:11;;;;;;;5.40;3.03;;;;;;;29.70;24.24;99111.94;6979770;28;20199;-77
2022/06/14 12:02:41;;;;;;;4.07;3.17;;;;;;;30.12;23.33;99092.59;6977108;28;20314;-81
2022/06/14 12:06:08;;;;;;;4.30;3.17;;;;;;;28.15;24.69;99102.84;6954901;28;20234;-80
2022/06/14 12:10:08;;;;;;;4.93;2.70;;;;;;;30.09;22.24;99087.72;6958216;28;20561;-80
2022/06/14 12:13:57;;;;;;;4.53;2.50;;;;;;;30.88;20.66;99096.53;6975200;28;20555;-80
2022/06/14 12:17:25;;;;;;;5.97;3.10;;;;;;;31.94;20.91;99077.66;6967045;28;20195;-81
2022/06/14 12:20:51;;;;;;;4.60;2.33;;;;;;;32.18;20.91;99072.22;6978896;28;20335;-82
2022/06/14 12:24:19;;;;;;;5.83;3.00;;;;;;;32.80;19.68;99068.31;6978929;28;20267;-79
2022/06/14 12:27:41;;;;;;;3.63;2.20;;;;;;;31.75;20.70;99068.91;6979014;28;20278;-79
2022/06/14 12:31:06;;;;;;;4.43;2.60;;;;;;;32.71;20.12;99067.53;6979598;28;20250;-80
2022/06/14 12:34:29;;;;;;;2.80;2.47;;;;;;;32.78;19.77;99065.03;6979601;28;20591;-79
2022/06/14 12:37:53;;;;;;;4.27;2.80;;;;;;;31.51;21.16;99041.63;6978801;28;20195;-80
2022/06/14 12:41:20;;;;;;;4.03;2.87;;;;;;;31.47;21.42;99050.97;6978094;28;20273;-79
2022/06/14 12:44:50;;;;;;;3.33;2.80;;;;;;;32.73;21.73;99042.88;6977364;28;20237;-80
2022/06/14 12:48:26;;;;;;;4.10;2.57;;;;;;;33.26;20.31;99037.19;6977521;28;20194;-79
2022/06/14 12:51:52;;;;;;;5.53;2.80;;;;;;;32.04;20.93;99039.03;6978284;28;20237;-80
2022/06/14 12:55:19;;;;;;;3.37;2.70;;;;;;;30.94;21.00;99047.88;6971632;28;20278;-79
2022/06/14 12:58:48;;;;;;;4.37;2.87;;;;;;;30.58;21.45;99041.84;6966984;28;20214;-80
2022/06/14 13:02:15;;;;;;;2.80;2.60;;;;;;;31.40;20.81;99043.16;6978460;28;20225;-80
2022/06/14 13:05:39;;;;;;;4.43;3.20;;;;;;;30.32;21.60;99029.94;6978339;28;20245;-79
2022/06/14 13:09:06;;;;;;;3.37;2.63;;;;;;;31.90;20.58;99029.28;6977410;28;20288;-80
2022/06/14 13:12:35;;;;;;;6.20;2.93;;;;;;;31.94;20.49;99003.16;6977436;28;20237;-79
2022/06/14 13:16:01;;;;;;;4.27;2.60;;;;;;;32.25;19.88;98991.63;6978045;28;20279;-79
2022/06/14 13:19:28;;;;;;;4.33;2.90;;;;;;;30.12;21.49;99002.75;6979128;28;20199;-78
2022/06/14 13:22:58;;;;;;;4.47;2.87;;;;;;;30.88;22.16;98997.13;6977258;28;20225;-79
2022/06/14 13:26:35;;;;;;;5.03;2.80;;;;;;;31.14;20.92;98983.09;6978550;28;20308;-80
2022/06/14 13:30:06;;;;;;;4.40;3.03;;;;;;;30.66;21.62;98996.53;6977672;28;20288;-80
2022/06/14 13:33:44;;;;;;;5.93;3.00;;;;;;;30.01;23.37;98991.13;6978778;28;20218;-80
2022/06/14 13:37:15;;;;;;;2.77;2.47;;;;;;;29.18;24.87;98971.19;6978652;28;20201;-80
2022/06/14 13:40:40;;;;;;;3.37;2.80;;;;;;;30.45;23.25;98984.41;6978132;28;20280;-79
2022/06/14 13:44:06;;;;;;;5.23;2.80;;;;;;;29.82;24.15;98989.81;6978679;28;20217;-80
2022/06/14 13:47:33;;;;;;;5.80;2.83;;;;;;;30.24;23.47;98989.03;6979394;28;20795;-81
2022/06/14 13:51:01;;;;;;;5.23;2.90;;;;;;;30.77;22.96;98979.13;6979592;28;20712;-81
2022/06/14 13:54:28;;;;;;;5.37;2.97;;;;;;;29.77;23.99;98988.00;6979666;28;20204;-81
2022/06/14 13:57:51;;;;;;;4.43;2.90;;;;;;;31.21;22.20;98975.06;6990657;28;20193;-81
2022/06/14 14:01:19;;;;;;;3.93;2.90;;;;;;;30.94;22.58;98986.59;6996258;28;20216;-80
2022/06/14 14:04:46;;;;;;;4.77;3.40;;;;;;;30.82;22.73;98965.03;6958706;28;20250;-81
2022/06/14 14:08:13;;;;;;;3.43;3.10;;;;;;;31.32;22.65;98942.88;6951833;28;20201;-80
2022/06/14 14:11:45;;;;;;;4.63;3.00;;;;;;;30.83;22.97;98971.44;6961774;28;20230;-81
2022/06/14 14:15:20;;;;;;;3.40;2.80;;;;;;;30.89;23.05;98961.75;6964740;28;20211;-81
2022/06/14 14:18:48;;;;;;;4.83;3.10;;;;;;;30.44;23.49;98954.97;6977847;28;20200;-81
2022/06/14 14:22:13;;;;;;;4.27;3.17;;;;;;;31.44;22.44;98957.69;6981253;28;20228;-80
2022/06/14 14:25:38;;;;;;;5.27;3.17;;;;;;;31.62;23.04;98955.63;6979006;28;20236;-80
2022/06/14 14:29:04;;;;;;;5.97;2.90;;;;;;;31.83;22.31;98936.97;6978663;28;20239;-80
2022/06/14 14:32:29;;;;;;;3.77;2.73;;;;;;;31.28;22.71;98950.25;6979126;28;20233;-81
2022/06/14 14:35:52;;;;;;;7.13;3.23;;;;;;;30.20;23.58;98940.75;6979051;28;20231;-81
2022/06/14 14:39:21;;;;;;;5.17;3.20;;;;;;;30.28;24.37;98954.66;6978051;28;20210;-81
2022/06/14 14:43:00;;;;;;;4.53;2.93;;;;;;;31.51;22.98;98932.91;6977974;28;20348;-81
2022/06/14 14:46:25;;;;;;;3.43;3.00;;;;;;;32.05;21.90;98923.47;6978377;28;20230;-81
2022/06/14 14:49:50;;;;;;;6.93;3.10;;;;;;;31.83;22.24;98932.19;6977974;28;20351;-81
2022/06/14 14:53:19;;;;;;;5.43;2.90;;;;;;;31.37;23.04;98934.31;6979026;28;20213;-81
2022/06/14 14:56:47;;;;;;;6.00;3.50;;;;;;;31.88;21.79;98937.56;6979446;28;20227;-81
2022/06/14 15:00:18;;;;;;;3.73;2.80;;;;;;;31.46;22.01;98947.03;6979185;28;20205;-81
2022/06/14 15:07:36;;;;;;;4.63;2.87;;;;;;;31.62;23.00;98928.56;6988628;28;20261;-80
2022/06/14 15:11:01;;;;;;;5.67;3.30;;;;;;;31.15;23.25;98921.47;6984597;28;20227;-81
2022/06/14 15:14:24;;;;;;;4.57;3.50;;;;;;;31.18;23.75;98912.47;6984668;28;20193;-80
2022/06/14 15:21:29;;;;;;;4.30;3.03;;;;;;;30.42;24.44;98884.91;6972523;28;20228;-80
2022/06/14 15:24:52;;;;;;;3.13;2.60;;;;;;;29.92;25.58;98887.44;6983815;28;20300;-79
2022/06/14 15:28:19;;;;;;;2.97;2.67;;;;;;;31.94;23.14;98888.78;6981798;28;20602;-79
2022/06/14 15:31:48;;;;;;;5.70;3.00;;;;;;;31.50;22.87;98874.72;6956035;28;20251;-79
2022/06/14 15:35:22;;;;;;;4.40;3.10;;;;;;;31.03;23.35;98892.69;6954798;28;20412;-79
2022/06/14 15:38:51;;;;;;;4.20;3.10;;;;;;;31.19;23.59;98886.22;6961347;28;20266;-79
2022/06/14 15:42:23;;;;;;;7.63;3.23;;;;;;;31.12;23.90;98882.31;6981276;28;20840;-79
2022/06/14 15:45:48;;;;;;;4.97;2.90;;;;;;;30.70;24.60;98884.16;6974318;28;20216;-79
2022/06/14 15:49:14;;;;;;;3.10;2.80;;;;;;;30.61;24.15;98866.63;6990385;28;20213;-79
2022/06/14 15:52:39;;;;;;;4.80;3.30;;;;;;;31.13;23.49;98847.75;6993488;28;20226;-79
2022/06/14 15:56:01;;;;;;;4.63;3.10;;;;;;;31.55;23.62;98855.78;6988633;28;20202;-79
2022/06/14 15:59:24;;;;;;;4.30;3.00;;;;;;;30.61;24.29;98819.31;6986107;28;20208;-79
2022/06/14 16:02:57;;;;;;;3.80;2.93;;;;;;;31.08;24.01;98859.88;6997386;28;20227;-79
2022/06/14 16:06:26;;;;;;;3.53;2.90;;;;;;;31.93;23.59;98862.06;6994024;28;20230;-80
2022/06/14 16:09:56;;;;;;;7.57;3.27;;;;;;;32.45;22.61;98853.97;6980389;28;20219;-79
2022/06/14 16:13:20;;;;;;;4.10;2.80;;;;;;;32.69;22.38;98859.59;6980282;28;20343;-79
2022/06/14 16:16:44;;;;;;;4.87;2.67;;;;;;;32.24;22.94;98847.59;6974830;28;20725;-79
2022/06/14 16:20:20;;;;;;;4.73;2.80;;;;;;;31.12;22.76;98865.59;6978066;28;20677;-79
2022/06/14 16:23:43;;;;;;;4.47;2.90;;;;;;;30.81;23.14;98857.59;6978730;28;20205;-79
2022/06/14 16:27:17;;;;;;;4.33;3.00;;;;;;;30.55;23.60;98865.19;6978502;28;20294;-79
2022/06/14 16:30:43;;;;;;;4.73;2.57;;;;;;;30.47;24.12;98857.69;6979509;28;20610;-79
2022/06/14 16:34:12;;;;;;;3.10;2.73;;;;;;;31.06;23.19;98853.84;6979114;28;20817;-80
2022/06/14 16:37:36;;;;;;;5.93;3.10;;;;;;;30.34;24.01;98852.34;6975877;28;20228;-80
2022/06/14 16:41:07;;;;;;;3.90;2.70;;;;;;;31.37;23.68;98831.19;6978935;28;20230;-79
2022/06/14 16:44:38;;;;;;;5.40;2.77;;;;;;;31.75;23.54;98840.25;6978447;28;20398;-80
2022/06/14 16:48:05;;;;;;;3.00;2.70;;;;;;;31.97;23.00;98829.50;6963777;28;20194;-80